43NC weather

Bahnson Airport
Mocksville, North Carolina, United States

Public forecast

Using degrees Fahrenheit for public forecast. Weather courtesy of forecast.io.

METAR (pilot weather report)

Closest report is Smith Reynolds Airport, 15.8 nm (29.3 km) ENE. Retrieved 2019/07/24 00:54 UTC (36 minutes ago):

KINT 240054Z COR 00000KT 10SM CLR 19/18 A2997

TAF (pilot weather forecast)

Forecast is more than 12 hours old.

Closest forecast is Smith Reynolds Airport, 15.8 nm (29.3 km) ENE. Retrieved 2019/07/23 00:39 UTC (1 day ago):

TAF KINT 232335Z 2400/2424 05005KT P6SM SCT070 BKN250 FM241300 03009KT P6SM SCT050